Aviation Digital Data Service (ADDS)

Output produced by METARs form (1022 UTC 25 March 2019)
found at http://aviationweather.gov/metar/data/
 
METAR text: WSSL 251000Z 04007KT 350V070 9999 FEW015 BKN018 30/24 Q1008
Conditions at: WSSL (SINGAPORE/SELETA, SG) observed 1000 UTC 25 March 2019
Temperature: 30.0°C (86°F)
Dewpoint: 24.0°C (75°F) [RH = 70%]
Pressure (altimeter): 29.76 inches Hg (1008.0 mb)
Winds: from the NE (40 degrees) at 8 MPH (7 knots; 3.6 m/s)
Visibility: 6 or more miles (10+ km)
Ceiling: 1800 feet AGL
Clouds: few clouds at 1500 feet AGL
broken clouds at 1800 feet AGL
Weather: no significant weather observed at this time

Forecast for: AMD
Text: TAF AMD WSSL 250800Z 2508/2612 02006KT 9999 FEW015 SCT020
Forecast period: 0800 UTC 25 March 2019 to 1200 UTC 26 March 2019
Forecast type: FROM: standard forecast or significant change
Winds: from the NNE (20 degrees) at 7 MPH (6 knots; 3.1 m/s)
Visibility: 6 or more miles 10+ km)
Ceiling: at least 12,000 feet AGL
Clouds: few clouds at 1500 feet AGL
scattered clouds at 2000 feet AGL
Weather: no significant weather forecast for this period
Text: TEMPO 2508/2510 2000 TSRA FEW012CB BKN015
Forecast period: 0800 to 1000 UTC 25 March 2019
Forecast type: TEMPORARY: The following changes expected for less than half the time period
Visibility: 1.24 miles (2.00 km)
Ceiling: 1500 feet AGL
Clouds: few clouds at 1200 feet AGL
broken clouds at 1500 feet AGL
Weather: TSRA  (rain associated with thunderstorm(s))